Archival Weather

Longyear

Longyear, Svalbard (ENSB)

Report from: Wednesday, December 6, 2023 6:20 PM UTC
Current time: Saturday, March 2, 2024 10:15 AM UTC

Current weather – Weather history – Daily summaries
Weather forecast

Present weatherLight snow showers
Temperature-4.0°C (24.8°F)
Wind chill-11.8°C (10.7°F)
Dew point-9.0°C (15.8°F)
Winds 17 kts (8.7 m/s, 19.6 mph) East-Southeast (120°)
Visibility6.2 mi. (10 km)
Clouds Few clouds 2,500 ft. (762 m)
Scattered clouds 15,000 ft. (4,572 m)
Altimeter30.53 in.Hg (1034 mB)
Relative humidity68 %
Density altitude-2,997 ft. (-914 m)
Flight conditions Visual Meteorological Conditions
Raw dataENSB 061820Z 12017KT 9999 -SHSN FEW025 SCT150 M04/M09 Q1034 RMK WIND 1400FT 10020KT
An error has occurred. This application may no longer respond until reloaded. Reload 🗙